sensor_id;sensor_type;location;lat;lon;timestamp;temperature;humidity
49385;DHT22;36795;45.028;38.968;2023-05-29T00:02:58;22.30;73.30
49385;DHT22;36795;45.028;38.968;2023-05-29T00:06:15;22.10;73.20
49385;DHT22;36795;45.028;38.968;2023-05-29T00:09:18;22.20;73.30
49385;DHT22;36795;45.028;38.968;2023-05-29T00:12:32;22.20;73.30
49385;DHT22;36795;45.028;38.968;2023-05-29T00:15:35;22.10;73.20
49385;DHT22;36795;45.028;38.968;2023-05-29T00:18:41;22.10;73.40
49385;DHT22;36795;45.028;38.968;2023-05-29T00:22:17;22.00;73.60
49385;DHT22;36795;45.028;38.968;2023-05-29T00:25:29;21.90;73.90
49385;DHT22;36795;45.028;38.968;2023-05-29T00:28:51;21.90;74.10
49385;DHT22;36795;45.028;38.968;2023-05-29T00:32:03;21.80;74.40
49385;DHT22;36795;45.028;38.968;2023-05-29T00:35:05;21.90;74.40
49385;DHT22;36795;45.028;38.968;2023-05-29T00:38:21;21.90;74.40
49385;DHT22;36795;45.028;38.968;2023-05-29T00:41:28;21.80;74.70
49385;DHT22;36795;45.028;38.968;2023-05-29T00:44:38;21.80;74.80
49385;DHT22;36795;45.028;38.968;2023-05-29T00:47:50;21.80;75.00
49385;DHT22;36795;45.028;38.968;2023-05-29T00:51:03;21.70;75.20
49385;DHT22;36795;45.028;38.968;2023-05-29T00:54:14;21.70;75.60
49385;DHT22;36795;45.028;38.968;2023-05-29T00:57:25;21.80;75.30
49385;DHT22;36795;45.028;38.968;2023-05-29T01:00:29;21.70;75.30
49385;DHT22;36795;45.028;38.968;2023-05-29T01:03:38;21.80;75.30
49385;DHT22;36795;45.028;38.968;2023-05-29T01:06:46;21.80;75.30
49385;DHT22;36795;45.028;38.968;2023-05-29T01:10:02;21.80;75.70
49385;DHT22;36795;45.028;38.968;2023-05-29T01:16:41;21.70;76.00
49385;DHT22;36795;45.028;38.968;2023-05-29T01:20:09;21.60;76.00
49385;DHT22;36795;45.028;38.968;2023-05-29T01:23:35;21.60;76.10
49385;DHT22;36795;45.028;38.968;2023-05-29T01:30:20;21.50;76.50
49385;DHT22;36795;45.028;38.968;2023-05-29T01:33:30;21.50;76.50
49385;DHT22;36795;45.028;38.968;2023-05-29T01:36:49;21.50;76.70
49385;DHT22;36795;45.028;38.968;2023-05-29T01:39:57;21.50;76.70
49385;DHT22;36795;45.028;38.968;2023-05-29T01:43:33;21.40;76.90
49385;DHT22;36795;45.028;38.968;2023-05-29T01:46:45;21.40;77.00
49385;DHT22;36795;45.028;38.968;2023-05-29T01:49:47;21.40;77.10
49385;DHT22;36795;45.028;38.968;2023-05-29T01:52:55;21.50;77.20
49385;DHT22;36795;45.028;38.968;2023-05-29T01:56:08;21.40;77.30
49385;DHT22;36795;45.028;38.968;2023-05-29T01:59:15;21.40;77.60
49385;DHT22;36795;45.028;38.968;2023-05-29T02:05:55;21.50;77.60
49385;DHT22;36795;45.028;38.968;2023-05-29T02:09:00;21.40;77.80
49385;DHT22;36795;45.028;38.968;2023-05-29T02:12:16;21.30;78.10
49385;DHT22;36795;45.028;38.968;2023-05-29T02:15:27;21.30;78.30
49385;DHT22;36795;45.028;38.968;2023-05-29T02:18:34;21.30;78.40
49385;DHT22;36795;45.028;38.968;2023-05-29T02:21:59;21.30;78.50
49385;DHT22;36795;45.028;38.968;2023-05-29T02:25:00;21.40;78.50
49385;DHT22;36795;45.028;38.968;2023-05-29T02:28:09;21.50;78.90
49385;DHT22;36795;45.028;38.968;2023-05-29T02:31:20;21.50;78.50
49385;DHT22;36795;45.028;38.968;2023-05-29T02:34:33;21.50;78.40
49385;DHT22;36795;45.028;38.968;2023-05-29T02:37:50;21.70;78.10
49385;DHT22;36795;45.028;38.968;2023-05-29T02:40:54;21.70;78.00
49385;DHT22;36795;45.028;38.968;2023-05-29T02:44:13;21.70;77.90
49385;DHT22;36795;45.028;38.968;2023-05-29T02:47:30;21.70;77.80
49385;DHT22;36795;45.028;38.968;2023-05-29T02:50:37;21.80;77.60
49385;DHT22;36795;45.028;38.968;2023-05-29T02:53:46;21.80;77.50
49385;DHT22;36795;45.028;38.968;2023-05-29T02:57:05;21.80;77.40
49385;DHT22;36795;45.028;38.968;2023-05-29T03:00:08;21.80;77.50
49385;DHT22;36795;45.028;38.968;2023-05-29T03:03:20;21.80;77.60
49385;DHT22;36795;45.028;38.968;2023-05-29T03:06:27;21.80;77.40
49385;DHT22;36795;45.028;38.968;2023-05-29T03:09:44;21.80;77.60
49385;DHT22;36795;45.028;38.968;2023-05-29T03:12:48;21.80;77.60
49385;DHT22;36795;45.028;38.968;2023-05-29T03:15:54;21.90;77.50
49385;DHT22;36795;45.028;38.968;2023-05-29T03:19:07;22.00;77.30
49385;DHT22;36795;45.028;38.968;2023-05-29T03:22:18;22.10;76.90
49385;DHT22;36795;45.028;38.968;2023-05-29T03:25:39;22.20;76.60
49385;DHT22;36795;45.028;38.968;2023-05-29T03:28:56;22.30;76.30
49385;DHT22;36795;45.028;38.968;2023-05-29T03:31:57;22.50;76.00
49385;DHT22;36795;45.028;38.968;2023-05-29T03:35:07;22.60;75.40
49385;DHT22;36795;45.028;38.968;2023-05-29T03:41:48;22.60;75.00
49385;DHT22;36795;45.028;38.968;2023-05-29T03:44:51;22.60;75.10
49385;DHT22;36795;45.028;38.968;2023-05-29T03:47:58;22.70;74.80
49385;DHT22;36795;45.028;38.968;2023-05-29T03:51:08;22.90;74.40
49385;DHT22;36795;45.028;38.968;2023-05-29T03:54:12;23.00;74.00
49385;DHT22;36795;45.028;38.968;2023-05-29T03:57:23;23.00;73.90
49385;DHT22;36795;45.028;38.968;2023-05-29T04:00:24;23.20;73.70
49385;DHT22;36795;45.028;38.968;2023-05-29T04:03:32;23.40;73.30
49385;DHT22;36795;45.028;38.968;2023-05-29T04:06:41;23.50;72.70
49385;DHT22;36795;45.028;38.968;2023-05-29T04:10:15;23.60;71.90
49385;DHT22;36795;45.028;38.968;2023-05-29T04:13:24;23.50;71.50
49385;DHT22;36795;45.028;38.968;2023-05-29T04:17:01;23.40;71.60
49385;DHT22;36795;45.028;38.968;2023-05-29T04:20:02;23.40;71.70
49385;DHT22;36795;45.028;38.968;2023-05-29T04:23:02;23.20;71.80
49385;DHT22;36795;45.028;38.968;2023-05-29T04:26:01;23.10;72.30
49385;DHT22;36795;45.028;38.968;2023-05-29T04:29:03;23.10;72.40
49385;DHT22;36795;45.028;38.968;2023-05-29T04:32:02;23.00;72.70
49385;DHT22;36795;45.028;38.968;2023-05-29T04:34:57;23.00;72.80
49385;DHT22;36795;45.028;38.968;2023-05-29T04:38:04;22.90;72.90
49385;DHT22;36795;45.028;38.968;2023-05-29T04:41:00;22.80;73.00
49385;DHT22;36795;45.028;38.968;2023-05-29T04:44:01;22.90;73.00
49385;DHT22;36795;45.028;38.968;2023-05-29T04:47:13;22.80;73.10
49385;DHT22;36795;45.028;38.968;2023-05-29T04:50:18;22.80;73.20
49385;DHT22;36795;45.028;38.968;2023-05-29T04:53:24;22.80;73.30
49385;DHT22;36795;45.028;38.968;2023-05-29T04:56:31;22.80;73.30
49385;DHT22;36795;45.028;38.968;2023-05-29T04:59:28;22.90;73.30
49385;DHT22;36795;45.028;38.968;2023-05-29T05:02:24;23.00;73.10
49385;DHT22;36795;45.028;38.968;2023-05-29T05:05:29;23.10;72.70
49385;DHT22;36795;45.028;38.968;2023-05-29T05:08:24;23.10;72.50
49385;DHT22;36795;45.028;38.968;2023-05-29T05:11:47;23.10;72.40
49385;DHT22;36795;45.028;38.968;2023-05-29T05:14:52;23.10;72.40
49385;DHT22;36795;45.028;38.968;2023-05-29T05:18:16;23.10;72.50
49385;DHT22;36795;45.028;38.968;2023-05-29T05:21:29;23.10;72.50
49385;DHT22;36795;45.028;38.968;2023-05-29T05:24:41;23.10;72.50
49385;DHT22;36795;45.028;38.968;2023-05-29T05:27:48;23.10;72.70
49385;DHT22;36795;45.028;38.968;2023-05-29T05:30:57;23.10;72.80
49385;DHT22;36795;45.028;38.968;2023-05-29T05:33:53;23.10;73.10
49385;DHT22;36795;45.028;38.968;2023-05-29T05:36:53;23.00;73.10
49385;DHT22;36795;45.028;38.968;2023-05-29T05:39:56;23.00;73.10
49385;DHT22;36795;45.028;38.968;2023-05-29T05:43:01;23.00;73.20
49385;DHT22;36795;45.028;38.968;2023-05-29T05:46:11;22.90;73.30
49385;DHT22;36795;45.028;38.968;2023-05-29T05:49:13;23.00;73.40
49385;DHT22;36795;45.028;38.968;2023-05-29T05:52:23;22.90;73.60
49385;DHT22;36795;45.028;38.968;2023-05-29T05:55:44;22.90;74.00
49385;DHT22;36795;45.028;38.968;2023-05-29T05:58:47;22.80;74.60
49385;DHT22;36795;45.028;38.968;2023-05-29T06:02:02;22.80;74.90
49385;DHT22;36795;45.028;38.968;2023-05-29T06:05:07;22.60;75.30
49385;DHT22;36795;45.028;38.968;2023-05-29T06:08:10;22.50;75.60
49385;DHT22;36795;45.028;38.968;2023-05-29T06:11:26;22.40;75.70
49385;DHT22;36795;45.028;38.968;2023-05-29T06:17:46;22.20;75.90
49385;DHT22;36795;45.028;38.968;2023-05-29T06:20:54;22.20;76.20
49385;DHT22;36795;45.028;38.968;2023-05-29T06:24:11;22.10;76.40
49385;DHT22;36795;45.028;38.968;2023-05-29T06:27:22;22.00;76.90
49385;DHT22;36795;45.028;38.968;2023-05-29T06:30:23;22.10;77.20
49385;DHT22;36795;45.028;38.968;2023-05-29T06:33:20;22.10;77.40
49385;DHT22;36795;45.028;38.968;2023-05-29T06:36:31;22.10;77.30
49385;DHT22;36795;45.028;38.968;2023-05-29T06:39:55;22.00;78.10
49385;DHT22;36795;45.028;38.968;2023-05-29T06:42:59;22.10;78.10
49385;DHT22;36795;45.028;38.968;2023-05-29T06:46:18;22.00;78.00
49385;DHT22;36795;45.028;38.968;2023-05-29T06:49:22;22.00;78.20
49385;DHT22;36795;45.028;38.968;2023-05-29T06:52:29;22.00;78.50
49385;DHT22;36795;45.028;38.968;2023-05-29T06:55:45;22.10;78.20
49385;DHT22;36795;45.028;38.968;2023-05-29T06:58:49;22.20;78.30
49385;DHT22;36795;45.028;38.968;2023-05-29T07:02:01;22.20;78.60
49385;DHT22;36795;45.028;38.968;2023-05-29T07:05:12;22.20;78.60
49385;DHT22;36795;45.028;38.968;2023-05-29T07:08:27;22.10;78.90
49385;DHT22;36795;45.028;38.968;2023-05-29T07:15:01;22.00;79.40
49385;DHT22;36795;45.028;38.968;2023-05-29T07:18:07;22.10;79.60
49385;DHT22;36795;45.028;38.968;2023-05-29T07:21:16;22.10;79.50
49385;DHT22;36795;45.028;38.968;2023-05-29T07:24:19;22.20;79.70
49385;DHT22;36795;45.028;38.968;2023-05-29T07:27:21;22.20;79.80
49385;DHT22;36795;45.028;38.968;2023-05-29T07:30:26;22.30;79.70
49385;DHT22;36795;45.028;38.968;2023-05-29T07:33:32;22.30;79.60
49385;DHT22;36795;45.028;38.968;2023-05-29T07:37:01;22.30;79.60
49385;DHT22;36795;45.028;38.968;2023-05-29T07:40:11;22.20;79.90
49385;DHT22;36795;45.028;38.968;2023-05-29T07:43:30;22.20;80.00
49385;DHT22;36795;45.028;38.968;2023-05-29T07:46:41;22.20;80.00
49385;DHT22;36795;45.028;38.968;2023-05-29T07:49:57;22.20;80.00
49385;DHT22;36795;45.028;38.968;2023-05-29T07:53:09;22.20;80.10
49385;DHT22;36795;45.028;38.968;2023-05-29T07:56:31;22.10;80.30
49385;DHT22;36795;45.028;38.968;2023-05-29T07:59:57;22.10;80.70
49385;DHT22;36795;45.028;38.968;2023-05-29T08:03:29;22.10;81.10
49385;DHT22;36795;45.028;38.968;2023-05-29T08:06:42;22.00;81.60
49385;DHT22;36795;45.028;38.968;2023-05-29T08:09:55;21.90;82.30
49385;DHT22;36795;45.028;38.968;2023-05-29T08:13:02;21.90;82.70
49385;DHT22;36795;45.028;38.968;2023-05-29T08:16:20;21.90;83.20
49385;DHT22;36795;45.028;38.968;2023-05-29T08:19:23;21.80;83.80
49385;DHT22;36795;45.028;38.968;2023-05-29T08:22:43;21.80;84.20
49385;DHT22;36795;45.028;38.968;2023-05-29T08:25:55;22.00;83.90
49385;DHT22;36795;45.028;38.968;2023-05-29T08:29:07;22.00;83.60
49385;DHT22;36795;45.028;38.968;2023-05-29T08:32:14;21.90;83.50
49385;DHT22;36795;45.028;38.968;2023-05-29T08:35:26;21.90;83.40
49385;DHT22;36795;45.028;38.968;2023-05-29T08:38:47;21.70;83.60
49385;DHT22;36795;45.028;38.968;2023-05-29T08:45:52;21.90;83.80
49385;DHT22;36795;45.028;38.968;2023-05-29T08:49:00;21.80;83.70
49385;DHT22;36795;45.028;38.968;2023-05-29T08:52:27;21.70;83.80
49385;DHT22;36795;45.028;38.968;2023-05-29T08:55:39;21.80;84.10
49385;DHT22;36795;45.028;38.968;2023-05-29T08:58:51;22.00;84.10
49385;DHT22;36795;45.028;38.968;2023-05-29T09:01:59;22.10;83.70
49385;DHT22;36795;45.028;38.968;2023-05-29T09:05:12;22.20;83.60
49385;DHT22;36795;45.028;38.968;2023-05-29T09:08:26;22.40;82.60
49385;DHT22;36795;45.028;38.968;2023-05-29T09:11:40;22.60;82.40
49385;DHT22;36795;45.028;38.968;2023-05-29T09:14:53;23.10;81.30
49385;DHT22;36795;45.028;38.968;2023-05-29T09:18:02;23.30;80.30
49385;DHT22;36795;45.028;38.968;2023-05-29T09:21:27;23.20;79.60
49385;DHT22;36795;45.028;38.968;2023-05-29T09:24:53;23.20;79.90
49385;DHT22;36795;45.028;38.968;2023-05-29T09:28:09;23.20;79.70
49385;DHT22;36795;45.028;38.968;2023-05-29T09:31:19;23.10;79.40
49385;DHT22;36795;45.028;38.968;2023-05-29T09:34:39;22.90;79.90
49385;DHT22;36795;45.028;38.968;2023-05-29T09:38:01;22.90;79.90
49385;DHT22;36795;45.028;38.968;2023-05-29T09:41:07;22.90;80.20
49385;DHT22;36795;45.028;38.968;2023-05-29T09:44:34;23.00;80.20
49385;DHT22;36795;45.028;38.968;2023-05-29T09:47:45;23.20;80.10
49385;DHT22;36795;45.028;38.968;2023-05-29T09:50:50;23.20;79.50
49385;DHT22;36795;45.028;38.968;2023-05-29T09:53:54;23.30;79.10
49385;DHT22;36795;45.028;38.968;2023-05-29T09:57:16;23.30;78.90
49385;DHT22;36795;45.028;38.968;2023-05-29T10:00:27;23.40;78.70
49385;DHT22;36795;45.028;38.968;2023-05-29T10:03:28;23.40;78.30
49385;DHT22;36795;45.028;38.968;2023-05-29T10:06:36;23.30;78.40
49385;DHT22;36795;45.028;38.968;2023-05-29T10:09:45;23.30;78.20
49385;DHT22;36795;45.028;38.968;2023-05-29T10:12:59;23.20;77.80
49385;DHT22;36795;45.028;38.968;2023-05-29T10:16:10;23.00;78.10
49385;DHT22;36795;45.028;38.968;2023-05-29T10:19:29;23.00;78.60
49385;DHT22;36795;45.028;38.968;2023-05-29T10:22:52;23.10;78.50
49385;DHT22;36795;45.028;38.968;2023-05-29T10:26:15;23.30;78.20
49385;DHT22;36795;45.028;38.968;2023-05-29T10:30:01;23.30;78.20
49385;DHT22;36795;45.028;38.968;2023-05-29T10:33:43;23.40;78.50
49385;DHT22;36795;45.028;38.968;2023-05-29T10:40:26;23.70;77.40
49385;DHT22;36795;45.028;38.968;2023-05-29T10:43:43;23.80;77.00
49385;DHT22;36795;45.028;38.968;2023-05-29T10:47:08;23.70;76.70
49385;DHT22;36795;45.028;38.968;2023-05-29T10:50:40;23.60;76.80
49385;DHT22;36795;45.028;38.968;2023-05-29T10:53:53;23.50;77.10
49385;DHT22;36795;45.028;38.968;2023-05-29T10:57:10;23.40;77.50
49385;DHT22;36795;45.028;38.968;2023-05-29T11:00:30;23.30;77.60
49385;DHT22;36795;45.028;38.968;2023-05-29T11:03:39;23.20;78.10
49385;DHT22;36795;45.028;38.968;2023-05-29T11:07:00;23.20;78.10
49385;DHT22;36795;45.028;38.968;2023-05-29T11:10:14;23.20;78.20
49385;DHT22;36795;45.028;38.968;2023-05-29T11:13:51;23.20;78.20
49385;DHT22;36795;45.028;38.968;2023-05-29T11:17:00;23.10;78.30
49385;DHT22;36795;45.028;38.968;2023-05-29T11:20:37;23.10;78.50
49385;DHT22;36795;45.028;38.968;2023-05-29T11:23:45;23.10;78.50
49385;DHT22;36795;45.028;38.968;2023-05-29T11:27:01;23.10;78.10
49385;DHT22;36795;45.028;38.968;2023-05-29T11:30:14;23.20;78.40
49385;DHT22;36795;45.028;38.968;2023-05-29T11:33:24;23.30;78.40
49385;DHT22;36795;45.028;38.968;2023-05-29T11:36:45;23.30;78.20
49385;DHT22;36795;45.028;38.968;2023-05-29T11:39:45;23.40;77.90
49385;DHT22;36795;45.028;38.968;2023-05-29T11:42:48;23.50;77.90
49385;DHT22;36795;45.028;38.968;2023-05-29T11:46:01;23.40;77.80
49385;DHT22;36795;45.028;38.968;2023-05-29T11:49:38;23.50;78.00
49385;DHT22;36795;45.028;38.968;2023-05-29T11:53:00;23.60;77.50
49385;DHT22;36795;45.028;38.968;2023-05-29T11:56:15;23.60;77.50
49385;DHT22;36795;45.028;38.968;2023-05-29T11:59:13;23.40;77.80
49385;DHT22;36795;45.028;38.968;2023-05-29T12:02:15;23.40;78.00
49385;DHT22;36795;45.028;38.968;2023-05-29T12:05:48;23.20;78.10
49385;DHT22;36795;45.028;38.968;2023-05-29T12:08:54;23.20;78.50
49385;DHT22;36795;45.028;38.968;2023-05-29T12:12:17;23.20;78.70
49385;DHT22;36795;45.028;38.968;2023-05-29T12:15:19;23.40;78.60
49385;DHT22;36795;45.028;38.968;2023-05-29T12:18:29;23.60;78.00
49385;DHT22;36795;45.028;38.968;2023-05-29T12:21:42;23.80;77.70
49385;DHT22;36795;45.028;38.968;2023-05-29T12:24:56;24.00;77.40
49385;DHT22;36795;45.028;38.968;2023-05-29T12:28:01;24.20;76.50
49385;DHT22;36795;45.028;38.968;2023-05-29T12:31:02;24.40;75.70
49385;DHT22;36795;45.028;38.968;2023-05-29T12:34:18;24.60;75.00
49385;DHT22;36795;45.028;38.968;2023-05-29T12:37:22;24.90;74.60
49385;DHT22;36795;45.028;38.968;2023-05-29T12:40:28;25.10;73.80
49385;DHT22;36795;45.028;38.968;2023-05-29T12:43:40;25.20;72.90
49385;DHT22;36795;45.028;38.968;2023-05-29T12:46:46;24.90;73.30
49385;DHT22;36795;45.028;38.968;2023-05-29T12:49:48;25.00;73.30
49385;DHT22;36795;45.028;38.968;2023-05-29T12:53:04;25.70;72.30
49385;DHT22;36795;45.028;38.968;2023-05-29T12:56:02;26.70;69.70
49385;DHT22;36795;45.028;38.968;2023-05-29T12:59:14;26.90;68.10
49385;DHT22;36795;45.028;38.968;2023-05-29T13:02:19;26.80;67.80
49385;DHT22;36795;45.028;38.968;2023-05-29T13:05:32;26.70;67.80
49385;DHT22;36795;45.028;38.968;2023-05-29T13:08:30;26.90;67.40
49385;DHT22;36795;45.028;38.968;2023-05-29T13:11:31;27.00;66.90
49385;DHT22;36795;45.028;38.968;2023-05-29T13:14:31;27.30;66.10
49385;DHT22;36795;45.028;38.968;2023-05-29T13:17:49;27.80;65.40
49385;DHT22;36795;45.028;38.968;2023-05-29T13:20:47;28.50;63.50
49385;DHT22;36795;45.028;38.968;2023-05-29T13:23:51;28.90;62.50
49385;DHT22;36795;45.028;38.968;2023-05-29T13:26:56;28.50;62.50
49385;DHT22;36795;45.028;38.968;2023-05-29T13:30:14;27.70;64.10
49385;DHT22;36795;45.028;38.968;2023-05-29T13:33:14;26.90;65.90
49385;DHT22;36795;45.028;38.968;2023-05-29T13:36:28;26.40;67.20
49385;DHT22;36795;45.028;38.968;2023-05-29T13:39:38;26.00;68.10
49385;DHT22;36795;45.028;38.968;2023-05-29T13:43:02;25.90;68.90
49385;DHT22;36795;45.028;38.968;2023-05-29T13:45:59;26.40;67.40
49385;DHT22;36795;45.028;38.968;2023-05-29T13:49:04;26.40;67.00
49385;DHT22;36795;45.028;38.968;2023-05-29T13:52:10;26.30;67.60
49385;DHT22;36795;45.028;38.968;2023-05-29T13:55:23;26.20;67.50
49385;DHT22;36795;45.028;38.968;2023-05-29T13:58:30;25.90;68.30
49385;DHT22;36795;45.028;38.968;2023-05-29T14:01:40;26.00;68.20
49385;DHT22;36795;45.028;38.968;2023-05-29T14:04:52;26.10;68.20
49385;DHT22;36795;45.028;38.968;2023-05-29T14:08:01;27.20;66.70
49385;DHT22;36795;45.028;38.968;2023-05-29T14:11:03;27.90;64.00
49385;DHT22;36795;45.028;38.968;2023-05-29T14:14:04;27.80;63.50
49385;DHT22;36795;45.028;38.968;2023-05-29T14:17:06;27.50;63.90
49385;DHT22;36795;45.028;38.968;2023-05-29T14:20:05;27.00;64.80
49385;DHT22;36795;45.028;38.968;2023-05-29T14:23:26;26.50;66.00
49385;DHT22;36795;45.028;38.968;2023-05-29T14:26:37;26.00;67.50
49385;DHT22;36795;45.028;38.968;2023-05-29T14:29:40;25.90;68.10
49385;DHT22;36795;45.028;38.968;2023-05-29T14:32:43;25.80;68.20
49385;DHT22;36795;45.028;38.968;2023-05-29T14:35:58;25.70;68.50
49385;DHT22;36795;45.028;38.968;2023-05-29T14:38:53;25.80;68.50
49385;DHT22;36795;45.028;38.968;2023-05-29T14:41:59;26.10;68.10
49385;DHT22;36795;45.028;38.968;2023-05-29T14:45:02;26.60;67.40
49385;DHT22;36795;45.028;38.968;2023-05-29T14:48:07;27.00;66.30
49385;DHT22;36795;45.028;38.968;2023-05-29T14:51:07;27.20;65.60
49385;DHT22;36795;45.028;38.968;2023-05-29T14:54:06;27.00;65.80
49385;DHT22;36795;45.028;38.968;2023-05-29T14:57:12;26.60;66.40
49385;DHT22;36795;45.028;38.968;2023-05-29T15:00:15;26.50;66.80
49385;DHT22;36795;45.028;38.968;2023-05-29T15:03:25;26.40;67.00
49385;DHT22;36795;45.028;38.968;2023-05-29T15:06:32;26.20;67.50
49385;DHT22;36795;45.028;38.968;2023-05-29T15:09:40;26.00;68.00
49385;DHT22;36795;45.028;38.968;2023-05-29T15:12:48;25.70;68.90
49385;DHT22;36795;45.028;38.968;2023-05-29T15:15:58;25.50;69.70
49385;DHT22;36795;45.028;38.968;2023-05-29T15:18:57;25.30;70.00
49385;DHT22;36795;45.028;38.968;2023-05-29T15:22:02;25.10;70.80
49385;DHT22;36795;45.028;38.968;2023-05-29T15:25:11;24.90;71.40
49385;DHT22;36795;45.028;38.968;2023-05-29T15:28:30;24.90;71.80
49385;DHT22;36795;45.028;38.968;2023-05-29T15:31:47;24.80;72.00
49385;DHT22;36795;45.028;38.968;2023-05-29T15:34:58;24.70;72.40
49385;DHT22;36795;45.028;38.968;2023-05-29T15:38:04;24.60;72.70
49385;DHT22;36795;45.028;38.968;2023-05-29T15:41:17;24.70;72.70
49385;DHT22;36795;45.028;38.968;2023-05-29T15:44:16;24.70;72.70
49385;DHT22;36795;45.028;38.968;2023-05-29T15:47:27;24.70;72.40
49385;DHT22;36795;45.028;38.968;2023-05-29T15:50:43;24.60;72.20
49385;DHT22;36795;45.028;38.968;2023-05-29T15:53:43;24.50;72.30
49385;DHT22;36795;45.028;38.968;2023-05-29T15:56:47;24.40;72.80
49385;DHT22;36795;45.028;38.968;2023-05-29T15:59:45;24.20;73.40
49385;DHT22;36795;45.028;38.968;2023-05-29T16:02:48;24.20;73.70
49385;DHT22;36795;45.028;38.968;2023-05-29T16:06:08;24.20;74.00
49385;DHT22;36795;45.028;38.968;2023-05-29T16:09:14;24.20;74.10
49385;DHT22;36795;45.028;38.968;2023-05-29T16:12:15;24.10;74.30
49385;DHT22;36795;45.028;38.968;2023-05-29T16:15:22;24.10;74.40
49385;DHT22;36795;45.028;38.968;2023-05-29T16:18:20;24.00;75.00
49385;DHT22;36795;45.028;38.968;2023-05-29T16:21:27;24.00;75.10
49385;DHT22;36795;45.028;38.968;2023-05-29T16:24:31;24.00;75.30
49385;DHT22;36795;45.028;38.968;2023-05-29T16:27:38;23.90;75.40
49385;DHT22;36795;45.028;38.968;2023-05-29T16:30:43;23.80;75.50
49385;DHT22;36795;45.028;38.968;2023-05-29T16:33:38;23.70;75.60
49385;DHT22;36795;45.028;38.968;2023-05-29T16:36:40;23.70;75.80
49385;DHT22;36795;45.028;38.968;2023-05-29T16:39:44;23.70;76.00
49385;DHT22;36795;45.028;38.968;2023-05-29T16:42:50;23.60;76.10
49385;DHT22;36795;45.028;38.968;2023-05-29T16:45:51;23.60;76.30
49385;DHT22;36795;45.028;38.968;2023-05-29T16:48:56;23.60;76.40
49385;DHT22;36795;45.028;38.968;2023-05-29T16:51:57;23.50;76.50
49385;DHT22;36795;45.028;38.968;2023-05-29T16:55:05;23.50;76.60
49385;DHT22;36795;45.028;38.968;2023-05-29T16:58:09;23.40;76.80
49385;DHT22;36795;45.028;38.968;2023-05-29T17:01:12;23.40;77.10
49385;DHT22;36795;45.028;38.968;2023-05-29T17:04:07;23.40;77.20
49385;DHT22;36795;45.028;38.968;2023-05-29T17:07:08;23.30;77.30
49385;DHT22;36795;45.028;38.968;2023-05-29T17:10:13;23.30;77.50
49385;DHT22;36795;45.028;38.968;2023-05-29T17:13:20;23.30;77.70
49385;DHT22;36795;45.028;38.968;2023-05-29T17:16:33;23.30;77.90
49385;DHT22;36795;45.028;38.968;2023-05-29T17:19:57;23.30;78.10
49385;DHT22;36795;45.028;38.968;2023-05-29T17:22:59;23.20;78.20
49385;DHT22;36795;45.028;38.968;2023-05-29T17:26:09;23.20;78.30
49385;DHT22;36795;45.028;38.968;2023-05-29T17:29:22;23.20;78.40
49385;DHT22;36795;45.028;38.968;2023-05-29T17:32:42;23.20;78.60
49385;DHT22;36795;45.028;38.968;2023-05-29T17:36:05;23.10;78.70
49385;DHT22;36795;45.028;38.968;2023-05-29T17:39:34;23.10;79.00
49385;DHT22;36795;45.028;38.968;2023-05-29T17:42:47;23.10;79.10
49385;DHT22;36795;45.028;38.968;2023-05-29T17:45:53;23.00;79.20
49385;DHT22;36795;45.028;38.968;2023-05-29T17:49:03;23.00;79.40
49385;DHT22;36795;45.028;38.968;2023-05-29T17:52:08;23.00;79.40
49385;DHT22;36795;45.028;38.968;2023-05-29T17:55:15;22.90;79.50
49385;DHT22;36795;45.028;38.968;2023-05-29T17:58:32;22.90;79.80
49385;DHT22;36795;45.028;38.968;2023-05-29T18:01:46;22.80;79.90
49385;DHT22;36795;45.028;38.968;2023-05-29T18:04:54;22.80;80.30
49385;DHT22;36795;45.028;38.968;2023-05-29T18:08:10;22.70;80.50
49385;DHT22;36795;45.028;38.968;2023-05-29T18:14:42;22.70;80.80
49385;DHT22;36795;45.028;38.968;2023-05-29T18:18:00;22.60;81.00
49385;DHT22;36795;45.028;38.968;2023-05-29T18:21:13;22.60;81.10
49385;DHT22;36795;45.028;38.968;2023-05-29T18:24:26;22.60;81.30
49385;DHT22;36795;45.028;38.968;2023-05-29T18:27:44;22.60;81.50
49385;DHT22;36795;45.028;38.968;2023-05-29T18:30:52;22.60;81.70
49385;DHT22;36795;45.028;38.968;2023-05-29T18:33:58;22.60;81.80
49385;DHT22;36795;45.028;38.968;2023-05-29T18:37:09;22.50;81.90
49385;DHT22;36795;45.028;38.968;2023-05-29T18:40:14;22.50;81.90
49385;DHT22;36795;45.028;38.968;2023-05-29T18:43:28;22.50;82.10
49385;DHT22;36795;45.028;38.968;2023-05-29T18:46:37;22.50;82.20
49385;DHT22;36795;45.028;38.968;2023-05-29T18:49:38;22.50;82.30
49385;DHT22;36795;45.028;38.968;2023-05-29T18:52:59;22.50;82.30
49385;DHT22;36795;45.028;38.968;2023-05-29T18:56:03;22.50;82.40
49385;DHT22;36795;45.028;38.968;2023-05-29T18:59:02;22.50;82.50
49385;DHT22;36795;45.028;38.968;2023-05-29T19:02:05;22.50;82.70
49385;DHT22;36795;45.028;38.968;2023-05-29T19:05:21;22.50;82.70
49385;DHT22;36795;45.028;38.968;2023-05-29T19:08:30;22.50;82.80
49385;DHT22;36795;45.028;38.968;2023-05-29T19:11:57;22.40;82.90
49385;DHT22;36795;45.028;38.968;2023-05-29T19:15:09;22.50;83.10
49385;DHT22;36795;45.028;38.968;2023-05-29T19:18:17;22.40;83.10
49385;DHT22;36795;45.028;38.968;2023-05-29T19:21:28;22.40;83.30
49385;DHT22;36795;45.028;38.968;2023-05-29T19:24:25;22.40;83.40
49385;DHT22;36795;45.028;38.968;2023-05-29T19:27:29;22.40;84.10
49385;DHT22;36795;45.028;38.968;2023-05-29T19:30:42;22.40;83.60
49385;DHT22;36795;45.028;38.968;2023-05-29T19:34:00;22.40;83.80
49385;DHT22;36795;45.028;38.968;2023-05-29T19:36:57;22.40;83.90
49385;DHT22;36795;45.028;38.968;2023-05-29T19:40:10;22.40;84.10
49385;DHT22;36795;45.028;38.968;2023-05-29T19:43:21;22.40;84.20
49385;DHT22;36795;45.028;38.968;2023-05-29T19:46:28;22.40;84.30
49385;DHT22;36795;45.028;38.968;2023-05-29T19:49:38;22.30;84.30
49385;DHT22;36795;45.028;38.968;2023-05-29T19:52:42;22.30;84.40
49385;DHT22;36795;45.028;38.968;2023-05-29T19:55:45;22.30;84.60
49385;DHT22;36795;45.028;38.968;2023-05-29T19:58:49;22.20;84.80
49385;DHT22;36795;45.028;38.968;2023-05-29T20:01:43;22.20;85.10
49385;DHT22;36795;45.028;38.968;2023-05-29T20:05:03;22.10;85.20
49385;DHT22;36795;45.028;38.968;2023-05-29T20:08:09;22.20;85.40
49385;DHT22;36795;45.028;38.968;2023-05-29T20:11:16;22.10;85.50
49385;DHT22;36795;45.028;38.968;2023-05-29T20:14:38;22.10;85.50